sensor_id;sensor_type;location;lat;lon;timestamp;pressure;altitude;pressure_sealevel;temperature;humidity
47983;BME280;33751;50.816;-1.214;2023-03-31T00:01:44;99243.04;;;23.52;100.00
47983;BME280;33751;50.816;-1.214;2023-03-31T00:04:11;99225.47;;;23.61;100.00
47983;BME280;33751;50.816;-1.214;2023-03-31T00:06:40;99224.52;;;23.54;100.00
47983;BME280;33751;50.816;-1.214;2023-03-31T00:09:09;99222.82;;;23.49;100.00
47983;BME280;33751;50.816;-1.214;2023-03-31T00:11:36;99221.86;;;23.43;100.00
47983;BME280;33751;50.816;-1.214;2023-03-31T00:14:04;99213.06;;;23.41;100.00
47983;BME280;33751;50.816;-1.214;2023-03-31T00:16:31;99216.40;;;23.64;100.00
47983;BME280;33751;50.816;-1.214;2023-03-31T00:18:58;99206.28;;;23.39;100.00
47983;BME280;33751;50.816;-1.214;2023-03-31T00:21:25;99194.50;;;23.41;100.00
47983;BME280;33751;50.816;-1.214;2023-03-31T00:23:53;99190.08;;;22.94;100.00
47983;BME280;33751;50.816;-1.214;2023-03-31T00:26:21;99177.18;;;23.44;100.00
47983;BME280;33751;50.816;-1.214;2023-03-31T00:28:48;99165.18;;;23.53;100.00
47983;BME280;33751;50.816;-1.214;2023-03-31T00:31:15;99156.78;;;23.21;100.00
47983;BME280;33751;50.816;-1.214;2023-03-31T00:33:42;99153.05;;;23.50;100.00
47983;BME280;33751;50.816;-1.214;2023-03-31T00:36:09;99136.39;;;23.41;100.00
47983;BME280;33751;50.816;-1.214;2023-03-31T00:38:35;99128.09;;;23.35;100.00
47983;BME280;33751;50.816;-1.214;2023-03-31T00:41:02;99111.07;;;23.40;100.00
47983;BME280;33751;50.816;-1.214;2023-03-31T00:43:32;99109.52;;;23.58;100.00
47983;BME280;33751;50.816;-1.214;2023-03-31T00:46:06;99097.35;;;23.24;100.00
47983;BME280;33751;50.816;-1.214;2023-03-31T00:48:36;99085.12;;;23.35;100.00
47983;BME280;33751;50.816;-1.214;2023-03-31T00:51:05;99079.69;;;23.40;100.00
47983;BME280;33751;50.816;-1.214;2023-03-31T00:53:33;99073.95;;;23.23;100.00
47983;BME280;33751;50.816;-1.214;2023-03-31T00:56:06;99064.05;;;23.30;100.00
47983;BME280;33751;50.816;-1.214;2023-03-31T00:58:34;99044.37;;;23.12;100.00
47983;BME280;33751;50.816;-1.214;2023-03-31T01:01:02;99050.25;;;23.25;100.00
47983;BME280;33751;50.816;-1.214;2023-03-31T01:03:30;99041.43;;;23.21;100.00
47983;BME280;33751;50.816;-1.214;2023-03-31T01:06:00;99034.79;;;23.26;100.00
47983;BME280;33751;50.816;-1.214;2023-03-31T01:08:28;99034.83;;;23.25;100.00
47983;BME280;33751;50.816;-1.214;2023-03-31T01:10:58;99029.59;;;23.26;100.00
47983;BME280;33751;50.816;-1.214;2023-03-31T01:13:26;99035.24;;;23.63;100.00
47983;BME280;33751;50.816;-1.214;2023-03-31T01:15:54;99021.65;;;23.19;100.00
47983;BME280;33751;50.816;-1.214;2023-03-31T01:18:20;99025.87;;;23.14;100.00
47983;BME280;33751;50.816;-1.214;2023-03-31T01:21:05;99019.55;;;23.26;100.00
47983;BME280;33751;50.816;-1.214;2023-03-31T01:23:53;99008.60;;;23.13;100.00
47983;BME280;33751;50.816;-1.214;2023-03-31T01:26:41;99001.89;;;23.21;100.00
47983;BME280;33751;50.816;-1.214;2023-03-31T01:29:28;98981.69;;;22.97;100.00
47983;BME280;33751;50.816;-1.214;2023-03-31T01:32:17;98983.69;;;23.14;100.00
47983;BME280;33751;50.816;-1.214;2023-03-31T01:35:08;98972.25;;;22.89;100.00
47983;BME280;33751;50.816;-1.214;2023-03-31T01:38:13;98963.83;;;22.91;100.00
47983;BME280;33751;50.816;-1.214;2023-03-31T01:41:00;98942.53;;;23.20;100.00
47983;BME280;33751;50.816;-1.214;2023-03-31T01:43:34;98935.35;;;23.03;100.00
47983;BME280;33751;50.816;-1.214;2023-03-31T01:46:09;98938.78;;;23.33;100.00
47983;BME280;33751;50.816;-1.214;2023-03-31T01:48:45;98922.24;;;23.13;100.00
47983;BME280;33751;50.816;-1.214;2023-03-31T01:51:17;98920.80;;;23.01;100.00
47983;BME280;33751;50.816;-1.214;2023-03-31T01:53:50;98903.65;;;23.04;100.00
47983;BME280;33751;50.816;-1.214;2023-03-31T01:56:22;98905.70;;;23.08;100.00
47983;BME280;33751;50.816;-1.214;2023-03-31T01:58:53;98900.94;;;23.57;100.00
47983;BME280;33751;50.816;-1.214;2023-03-31T02:01:26;98889.02;;;23.05;100.00
47983;BME280;33751;50.816;-1.214;2023-03-31T02:03:58;98887.96;;;23.04;100.00
47983;BME280;33751;50.816;-1.214;2023-03-31T02:06:29;98883.78;;;23.22;100.00
47983;BME280;33751;50.816;-1.214;2023-03-31T02:09:03;98861.61;;;23.15;100.00
47983;BME280;33751;50.816;-1.214;2023-03-31T02:11:33;98860.58;;;22.99;100.00
47983;BME280;33751;50.816;-1.214;2023-03-31T02:14:01;98858.08;;;22.93;100.00
47983;BME280;33751;50.816;-1.214;2023-03-31T02:16:30;98858.73;;;22.68;100.00
47983;BME280;33751;50.816;-1.214;2023-03-31T02:19:03;98848.60;;;23.14;100.00
47983;BME280;33751;50.816;-1.214;2023-03-31T02:21:33;98852.07;;;22.87;100.00
47983;BME280;33751;50.816;-1.214;2023-03-31T02:24:04;98848.68;;;22.93;100.00
47983;BME280;33751;50.816;-1.214;2023-03-31T02:26:36;98842.15;;;22.94;100.00
47983;BME280;33751;50.816;-1.214;2023-03-31T02:29:05;98834.30;;;22.89;100.00
47983;BME280;33751;50.816;-1.214;2023-03-31T02:31:37;98811.10;;;22.81;100.00
47983;BME280;33751;50.816;-1.214;2023-03-31T02:34:08;98821.90;;;22.93;100.00
47983;BME280;33751;50.816;-1.214;2023-03-31T02:36:35;98805.94;;;22.86;100.00
47983;BME280;33751;50.816;-1.214;2023-03-31T02:39:05;98808.61;;;22.75;100.00
47983;BME280;33751;50.816;-1.214;2023-03-31T02:41:34;98801.48;;;22.97;100.00
47983;BME280;33751;50.816;-1.214;2023-03-31T02:44:02;98796.93;;;22.84;100.00
47983;BME280;33751;50.816;-1.214;2023-03-31T02:46:29;98797.35;;;23.04;100.00
47983;BME280;33751;50.816;-1.214;2023-03-31T02:48:59;98783.42;;;22.76;100.00
47983;BME280;33751;50.816;-1.214;2023-03-31T02:52:50;98788.19;;;23.74;100.00
47983;BME280;33751;50.816;-1.214;2023-03-31T02:55:40;98777.52;;;22.79;100.00
47983;BME280;33751;50.816;-1.214;2023-03-31T02:58:24;98760.13;;;22.67;100.00
47983;BME280;33751;50.816;-1.214;2023-03-31T03:01:08;98762.16;;;22.74;100.00
47983;BME280;33751;50.816;-1.214;2023-03-31T03:03:44;98750.49;;;22.58;100.00
47983;BME280;33751;50.816;-1.214;2023-03-31T03:06:22;98744.53;;;22.67;100.00
47983;BME280;33751;50.816;-1.214;2023-03-31T03:09:03;98743.55;;;22.68;100.00
47983;BME280;33751;50.816;-1.214;2023-03-31T03:11:38;98734.38;;;22.61;100.00
47983;BME280;33751;50.816;-1.214;2023-03-31T03:14:17;98714.46;;;22.65;100.00
47983;BME280;33751;50.816;-1.214;2023-03-31T03:16:52;98711.61;;;22.60;100.00
47983;BME280;33751;50.816;-1.214;2023-03-31T03:19:22;98700.31;;;22.49;100.00
47983;BME280;33751;50.816;-1.214;2023-03-31T03:21:50;98687.71;;;22.77;100.00
47983;BME280;33751;50.816;-1.214;2023-03-31T03:24:17;98697.64;;;22.73;100.00
47983;BME280;33751;50.816;-1.214;2023-03-31T03:26:45;98691.54;;;22.45;100.00
47983;BME280;33751;50.816;-1.214;2023-03-31T03:29:12;98691.69;;;22.72;100.00
47983;BME280;33751;50.816;-1.214;2023-03-31T03:31:39;98685.95;;;22.54;100.00
47983;BME280;33751;50.816;-1.214;2023-03-31T03:34:06;98681.00;;;22.83;100.00
47983;BME280;33751;50.816;-1.214;2023-03-31T03:36:33;98688.01;;;22.77;100.00
47983;BME280;33751;50.816;-1.214;2023-03-31T03:39:00;98682.31;;;22.93;100.00
47983;BME280;33751;50.816;-1.214;2023-03-31T03:41:28;98666.86;;;22.70;100.00
47983;BME280;33751;50.816;-1.214;2023-03-31T03:43:54;98665.00;;;22.52;100.00
47983;BME280;33751;50.816;-1.214;2023-03-31T03:46:21;98653.77;;;22.90;100.00
47983;BME280;33751;50.816;-1.214;2023-03-31T03:48:48;98645.37;;;22.91;100.00
47983;BME280;33751;50.816;-1.214;2023-03-31T03:51:15;98633.32;;;22.68;100.00
47983;BME280;33751;50.816;-1.214;2023-03-31T03:53:42;98636.69;;;22.56;100.00
47983;BME280;33751;50.816;-1.214;2023-03-31T03:56:09;98627.85;;;22.63;100.00
47983;BME280;33751;50.816;-1.214;2023-03-31T03:58:35;98624.97;;;22.92;100.00
47983;BME280;33751;50.816;-1.214;2023-03-31T04:01:02;98617.18;;;22.85;100.00
47983;BME280;33751;50.816;-1.214;2023-03-31T04:03:29;98605.16;;;22.89;100.00
47983;BME280;33751;50.816;-1.214;2023-03-31T04:05:56;98602.57;;;22.64;100.00
47983;BME280;33751;50.816;-1.214;2023-03-31T04:08:23;98597.70;;;22.91;100.00
47983;BME280;33751;50.816;-1.214;2023-03-31T04:10:50;98585.26;;;22.52;100.00
47983;BME280;33751;50.816;-1.214;2023-03-31T04:13:18;98585.32;;;22.70;100.00
47983;BME280;33751;50.816;-1.214;2023-03-31T04:15:45;98578.04;;;22.75;100.00
47983;BME280;33751;50.816;-1.214;2023-03-31T04:18:12;98577.32;;;22.27;100.00
47983;BME280;33751;50.816;-1.214;2023-03-31T04:20:38;98571.90;;;22.75;100.00
47983;BME280;33751;50.816;-1.214;2023-03-31T04:23:05;98558.69;;;22.31;100.00
47983;BME280;33751;50.816;-1.214;2023-03-31T04:25:32;98552.14;;;22.47;100.00
47983;BME280;33751;50.816;-1.214;2023-03-31T04:27:59;98543.44;;;22.66;100.00
47983;BME280;33751;50.816;-1.214;2023-03-31T04:30:26;98546.37;;;22.68;100.00
47983;BME280;33751;50.816;-1.214;2023-03-31T04:32:54;98540.75;;;22.29;100.00
47983;BME280;33751;50.816;-1.214;2023-03-31T04:35:24;98526.90;;;22.64;100.00
47983;BME280;33751;50.816;-1.214;2023-03-31T04:37:52;98528.94;;;22.68;100.00
47983;BME280;33751;50.816;-1.214;2023-03-31T04:40:19;98527.94;;;22.48;100.00
47983;BME280;33751;50.816;-1.214;2023-03-31T04:42:46;98518.16;;;22.44;100.00
47983;BME280;33751;50.816;-1.214;2023-03-31T04:45:13;98523.27;;;22.67;100.00
47983;BME280;33751;50.816;-1.214;2023-03-31T04:47:39;98524.62;;;22.43;100.00
47983;BME280;33751;50.816;-1.214;2023-03-31T04:50:07;98515.70;;;22.47;100.00
47983;BME280;33751;50.816;-1.214;2023-03-31T04:52:34;98516.67;;;22.64;100.00
47983;BME280;33751;50.816;-1.214;2023-03-31T04:55:01;98504.24;;;22.60;100.00
47983;BME280;33751;50.816;-1.214;2023-03-31T04:57:28;98503.05;;;22.66;100.00
47983;BME280;33751;50.816;-1.214;2023-03-31T04:59:55;98492.81;;;22.18;100.00
47983;BME280;33751;50.816;-1.214;2023-03-31T05:02:21;98492.88;;;22.52;100.00
47983;BME280;33751;50.816;-1.214;2023-03-31T05:04:49;98493.08;;;22.35;100.00
47983;BME280;33751;50.816;-1.214;2023-03-31T05:07:16;98488.98;;;22.63;100.00
47983;BME280;33751;50.816;-1.214;2023-03-31T05:09:43;98486.64;;;22.64;100.00
47983;BME280;33751;50.816;-1.214;2023-03-31T05:12:10;98487.89;;;22.34;100.00
47983;BME280;33751;50.816;-1.214;2023-03-31T05:14:36;98483.57;;;22.50;100.00
47983;BME280;33751;50.816;-1.214;2023-03-31T05:17:03;98482.19;;;22.55;100.00
47983;BME280;33751;50.816;-1.214;2023-03-31T05:19:29;98483.55;;;22.52;100.00
47983;BME280;33751;50.816;-1.214;2023-03-31T05:21:56;98485.50;;;22.53;100.00
47983;BME280;33751;50.816;-1.214;2023-03-31T05:24:23;98477.98;;;22.44;100.00
47983;BME280;33751;50.816;-1.214;2023-03-31T05:26:51;98480.28;;;22.33;100.00
47983;BME280;33751;50.816;-1.214;2023-03-31T05:29:18;98485.53;;;22.50;100.00
47983;BME280;33751;50.816;-1.214;2023-03-31T05:31:46;98486.86;;;22.50;100.00
47983;BME280;33751;50.816;-1.214;2023-03-31T05:34:13;98480.55;;;22.43;100.00
47983;BME280;33751;50.816;-1.214;2023-03-31T05:36:40;98485.60;;;22.45;100.00
47983;BME280;33751;50.816;-1.214;2023-03-31T05:39:07;98481.06;;;22.26;100.00
47983;BME280;33751;50.816;-1.214;2023-03-31T05:41:34;98482.82;;;22.14;100.00
47983;BME280;33751;50.816;-1.214;2023-03-31T05:44:01;98477.65;;;22.29;100.00
47983;BME280;33751;50.816;-1.214;2023-03-31T05:46:28;98484.05;;;21.99;100.00
47983;BME280;33751;50.816;-1.214;2023-03-31T05:48:55;98484.67;;;22.08;100.00
47983;BME280;33751;50.816;-1.214;2023-03-31T05:51:21;98481.27;;;22.40;100.00
47983;BME280;33751;50.816;-1.214;2023-03-31T05:53:49;98488.44;;;22.71;100.00
47983;BME280;33751;50.816;-1.214;2023-03-31T05:56:15;98482.69;;;22.48;100.00
47983;BME280;33751;50.816;-1.214;2023-03-31T05:58:42;98482.80;;;23.16;100.00
47983;BME280;33751;50.816;-1.214;2023-03-31T06:01:10;98489.81;;;22.81;100.00
47983;BME280;33751;50.816;-1.214;2023-03-31T06:03:39;98472.97;;;23.30;100.00
47983;BME280;33751;50.816;-1.214;2023-03-31T06:06:07;98493.68;;;22.98;100.00
47983;BME280;33751;50.816;-1.214;2023-03-31T06:08:34;98484.08;;;23.47;100.00
47983;BME280;33751;50.816;-1.214;2023-03-31T06:11:04;98489.65;;;23.08;100.00
47983;BME280;33751;50.816;-1.214;2023-03-31T06:13:32;98480.57;;;23.10;100.00
47983;BME280;33751;50.816;-1.214;2023-03-31T06:15:59;98479.94;;;23.18;100.00
47983;BME280;33751;50.816;-1.214;2023-03-31T06:18:28;98492.01;;;23.44;100.00
47983;BME280;33751;50.816;-1.214;2023-03-31T06:20:55;98487.58;;;23.27;100.00
47983;BME280;33751;50.816;-1.214;2023-03-31T06:23:22;98488.53;;;23.26;100.00
47983;BME280;33751;50.816;-1.214;2023-03-31T06:25:50;98486.19;;;23.36;100.00
47983;BME280;33751;50.816;-1.214;2023-03-31T06:28:17;98486.20;;;23.38;100.00
47983;BME280;33751;50.816;-1.214;2023-03-31T06:30:44;98474.14;;;23.64;100.00
47983;BME280;33751;50.816;-1.214;2023-03-31T06:33:11;98477.95;;;23.40;100.00
47983;BME280;33751;50.816;-1.214;2023-03-31T06:35:39;98486.96;;;23.60;100.00
47983;BME280;33751;50.816;-1.214;2023-03-31T06:38:07;98487.06;;;23.40;100.00
47983;BME280;33751;50.816;-1.214;2023-03-31T06:40:34;98479.13;;;23.31;100.00
47983;BME280;33751;50.816;-1.214;2023-03-31T06:43:01;98483.24;;;23.39;100.00
47983;BME280;33751;50.816;-1.214;2023-03-31T06:45:27;98484.56;;;23.50;100.00
47983;BME280;33751;50.816;-1.214;2023-03-31T06:47:54;98476.79;;;23.23;100.00
47983;BME280;33751;50.816;-1.214;2023-03-31T06:50:22;98483.12;;;23.48;100.00
47983;BME280;33751;50.816;-1.214;2023-03-31T06:52:48;98473.48;;;23.57;100.00
47983;BME280;33751;50.816;-1.214;2023-03-31T06:55:15;98485.42;;;23.87;100.00
47983;BME280;33751;50.816;-1.214;2023-03-31T06:57:42;98473.15;;;23.43;100.00
47983;BME280;33751;50.816;-1.214;2023-03-31T07:00:10;98489.30;;;23.71;100.00
47983;BME280;33751;50.816;-1.214;2023-03-31T07:02:37;98483.35;;;23.77;100.00
47983;BME280;33751;50.816;-1.214;2023-03-31T07:05:04;98488.22;;;23.51;100.00
47983;BME280;33751;50.816;-1.214;2023-03-31T07:07:32;98483.13;;;23.70;100.00
47983;BME280;33751;50.816;-1.214;2023-03-31T07:09:59;98476.79;;;23.74;100.00
47983;BME280;33751;50.816;-1.214;2023-03-31T07:12:26;98487.06;;;23.77;100.00
47983;BME280;33751;50.816;-1.214;2023-03-31T07:14:54;98483.60;;;23.84;100.00
47983;BME280;33751;50.816;-1.214;2023-03-31T07:17:20;98482.61;;;23.69;100.00
47983;BME280;33751;50.816;-1.214;2023-03-31T07:19:47;98470.72;;;23.88;100.00
47983;BME280;33751;50.816;-1.214;2023-03-31T07:22:14;98476.77;;;23.69;100.00
47983;BME280;33751;50.816;-1.214;2023-03-31T07:24:41;98481.16;;;23.92;100.00
47983;BME280;33751;50.816;-1.214;2023-03-31T07:27:08;98482.60;;;24.02;100.00
47983;BME280;33751;50.816;-1.214;2023-03-31T07:29:35;98478.48;;;23.82;100.00
47983;BME280;33751;50.816;-1.214;2023-03-31T07:32:02;98495.09;;;24.18;100.00
47983;BME280;33751;50.816;-1.214;2023-03-31T07:34:30;98494.97;;;23.92;100.00
47983;BME280;33751;50.816;-1.214;2023-03-31T07:36:57;98492.59;;;23.72;100.00
47983;BME280;33751;50.816;-1.214;2023-03-31T07:39:24;98492.66;;;23.94;100.00
47983;BME280;33751;50.816;-1.214;2023-03-31T07:41:50;98482.29;;;24.02;100.00
47983;BME280;33751;50.816;-1.214;2023-03-31T07:44:17;98488.41;;;24.28;100.00
47983;BME280;33751;50.816;-1.214;2023-03-31T07:46:43;98494.21;;;24.37;100.00
47983;BME280;33751;50.816;-1.214;2023-03-31T07:49:10;98487.89;;;24.05;100.00
47983;BME280;33751;50.816;-1.214;2023-03-31T07:51:37;98491.49;;;24.08;100.00
47983;BME280;33751;50.816;-1.214;2023-03-31T07:54:03;98491.75;;;23.93;100.00
47983;BME280;33751;50.816;-1.214;2023-03-31T07:56:31;98499.53;;;24.15;100.00
47983;BME280;33751;50.816;-1.214;2023-03-31T07:58:58;98497.94;;;23.87;100.00
47983;BME280;33751;50.816;-1.214;2023-03-31T08:01:24;98504.76;;;23.97;100.00
47983;BME280;33751;50.816;-1.214;2023-03-31T08:03:51;98500.86;;;23.68;100.00
47983;BME280;33751;50.816;-1.214;2023-03-31T08:06:19;98502.68;;;23.87;100.00
47983;BME280;33751;50.816;-1.214;2023-03-31T08:08:48;98503.33;;;24.22;100.00
47983;BME280;33751;50.816;-1.214;2023-03-31T08:11:16;98508.52;;;23.46;100.00
47983;BME280;33751;50.816;-1.214;2023-03-31T08:13:42;98515.34;;;23.67;100.00
47983;BME280;33751;50.816;-1.214;2023-03-31T08:16:09;98513.27;;;23.91;100.00
47983;BME280;33751;50.816;-1.214;2023-03-31T08:18:36;98518.29;;;23.78;100.00
47983;BME280;33751;50.816;-1.214;2023-03-31T08:21:03;98513.53;;;23.98;100.00
47983;BME280;33751;50.816;-1.214;2023-03-31T08:23:30;98510.34;;;24.27;100.00
47983;BME280;33751;50.816;-1.214;2023-03-31T08:26:07;98512.03;;;24.13;100.00
47983;BME280;33751;50.816;-1.214;2023-03-31T08:28:34;98519.33;;;24.03;100.00
47983;BME280;33751;50.816;-1.214;2023-03-31T08:31:03;98517.84;;;24.66;100.00
47983;BME280;33751;50.816;-1.214;2023-03-31T08:33:30;98522.94;;;24.80;100.00
47983;BME280;33751;50.816;-1.214;2023-03-31T08:36:01;98525.07;;;24.74;100.00
47983;BME280;33751;50.816;-1.214;2023-03-31T08:38:28;98524.99;;;25.15;100.00
47983;BME280;33751;50.816;-1.214;2023-03-31T08:40:58;98525.47;;;25.46;100.00
47983;BME280;33751;50.816;-1.214;2023-03-31T08:43:29;98529.47;;;25.04;100.00
47983;BME280;33751;50.816;-1.214;2023-03-31T08:45:58;98530.97;;;24.78;100.00
47983;BME280;33751;50.816;-1.214;2023-03-31T08:48:28;98527.99;;;25.89;100.00
47983;BME280;33751;50.816;-1.214;2023-03-31T08:51:00;98526.45;;;25.52;100.00
47983;BME280;33751;50.816;-1.214;2023-03-31T08:53:33;98540.33;;;25.46;100.00
47983;BME280;33751;50.816;-1.214;2023-03-31T08:56:03;98539.99;;;25.57;100.00
47983;BME280;33751;50.816;-1.214;2023-03-31T08:58:38;98538.98;;;25.31;100.00
47983;BME280;33751;50.816;-1.214;2023-03-31T09:01:13;98536.63;;;25.32;100.00
47983;BME280;33751;50.816;-1.214;2023-03-31T09:04:03;98545.17;;;25.05;100.00
47983;BME280;33751;50.816;-1.214;2023-03-31T09:06:36;98538.64;;;25.37;100.00
47983;BME280;33751;50.816;-1.214;2023-03-31T09:09:09;98546.79;;;25.48;100.00
47983;BME280;33751;50.816;-1.214;2023-03-31T09:11:43;98549.66;;;25.18;100.00
47983;BME280;33751;50.816;-1.214;2023-03-31T09:14:20;98545.33;;;25.23;100.00
47983;BME280;33751;50.816;-1.214;2023-03-31T09:16:58;98541.77;;;25.76;100.00
47983;BME280;33751;50.816;-1.214;2023-03-31T09:19:34;98554.59;;;26.41;100.00
47983;BME280;33751;50.816;-1.214;2023-03-31T09:22:03;98555.23;;;26.25;100.00
47983;BME280;33751;50.816;-1.214;2023-03-31T09:24:35;98552.55;;;25.96;100.00
47983;BME280;33751;50.816;-1.214;2023-03-31T09:27:07;98552.37;;;25.73;100.00
47983;BME280;33751;50.816;-1.214;2023-03-31T09:29:41;98560.61;;;25.40;100.00
47983;BME280;33751;50.816;-1.214;2023-03-31T09:32:14;98553.80;;;25.46;100.00
47983;BME280;33751;50.816;-1.214;2023-03-31T09:34:42;98557.02;;;25.36;100.00
47983;BME280;33751;50.816;-1.214;2023-03-31T09:37:10;98566.03;;;25.44;100.00
47983;BME280;33751;50.816;-1.214;2023-03-31T09:39:38;98562.14;;;25.27;100.00
47983;BME280;33751;50.816;-1.214;2023-03-31T09:42:05;98575.17;;;25.08;100.00
47983;BME280;33751;50.816;-1.214;2023-03-31T09:44:36;98575.67;;;25.31;100.00
47983;BME280;33751;50.816;-1.214;2023-03-31T09:47:05;98570.50;;;25.11;100.00
47983;BME280;33751;50.816;-1.214;2023-03-31T09:49:34;98567.64;;;25.20;100.00
47983;BME280;33751;50.816;-1.214;2023-03-31T09:52:05;98575.50;;;25.39;100.00
47983;BME280;33751;50.816;-1.214;2023-03-31T09:54:36;98576.89;;;25.66;100.00
47983;BME280;33751;50.816;-1.214;2023-03-31T09:57:14;98579.47;;;25.64;100.00
47983;BME280;33751;50.816;-1.214;2023-03-31T09:59:41;98583.10;;;26.38;100.00
47983;BME280;33751;50.816;-1.214;2023-03-31T10:02:32;98585.83;;;26.21;100.00
47983;BME280;33751;50.816;-1.214;2023-03-31T10:04:59;98587.06;;;25.94;100.00
47983;BME280;33751;50.816;-1.214;2023-03-31T10:07:27;98591.75;;;25.80;100.00
47983;BME280;33751;50.816;-1.214;2023-03-31T10:09:54;98600.72;;;25.62;100.00
47983;BME280;33751;50.816;-1.214;2023-03-31T10:12:25;98605.31;;;25.70;100.00
47983;BME280;33751;50.816;-1.214;2023-03-31T10:15:20;98614.62;;;25.69;100.00
47983;BME280;33751;50.816;-1.214;2023-03-31T10:17:47;98608.79;;;26.32;100.00
47983;BME280;33751;50.816;-1.214;2023-03-31T10:20:20;98617.20;;;26.19;100.00
47983;BME280;33751;50.816;-1.214;2023-03-31T10:22:53;98610.49;;;26.25;100.00
47983;BME280;33751;50.816;-1.214;2023-03-31T10:25:22;98610.17;;;26.71;100.00
47983;BME280;33751;50.816;-1.214;2023-03-31T10:27:55;98616.40;;;26.71;100.00
47983;BME280;33751;50.816;-1.214;2023-03-31T10:30:25;98611.81;;;26.70;100.00
47983;BME280;33751;50.816;-1.214;2023-03-31T10:32:52;98620.18;;;26.65;100.00
47983;BME280;33751;50.816;-1.214;2023-03-31T10:35:23;98626.07;;;26.50;100.00
47983;BME280;33751;50.816;-1.214;2023-03-31T10:37:55;98625.94;;;26.88;100.00
47983;BME280;33751;50.816;-1.214;2023-03-31T10:40:25;98628.20;;;26.99;100.00
47983;BME280;33751;50.816;-1.214;2023-03-31T10:43:03;98642.29;;;26.74;100.00
47983;BME280;33751;50.816;-1.214;2023-03-31T10:45:37;98645.19;;;26.81;100.00
47983;BME280;33751;50.816;-1.214;2023-03-31T10:48:17;98642.77;;;26.76;100.00
47983;BME280;33751;50.816;-1.214;2023-03-31T10:50:44;98653.27;;;26.62;100.00
47983;BME280;33751;50.816;-1.214;2023-03-31T10:53:12;98658.84;;;26.63;100.00
47983;BME280;33751;50.816;-1.214;2023-03-31T10:55:47;98664.37;;;27.09;100.00
47983;BME280;33751;50.816;-1.214;2023-03-31T10:58:32;98665.29;;;26.69;100.00
47983;BME280;33751;50.816;-1.214;2023-03-31T11:01:07;98674.27;;;26.47;100.00
47983;BME280;33751;50.816;-1.214;2023-03-31T11:03:52;98683.00;;;26.25;100.00
47983;BME280;33751;50.816;-1.214;2023-03-31T11:06:26;98677.10;;;26.53;100.00
47983;BME280;33751;50.816;-1.214;2023-03-31T11:09:07;98683.44;;;26.51;100.00
47983;BME280;33751;50.816;-1.214;2023-03-31T11:11:49;98691.98;;;26.48;100.00
47983;BME280;33751;50.816;-1.214;2023-03-31T11:14:28;98702.45;;;26.22;100.00
47983;BME280;33751;50.816;-1.214;2023-03-31T11:17:02;98704.55;;;26.16;100.00
47983;BME280;33751;50.816;-1.214;2023-03-31T11:19:41;98711.18;;;26.10;100.00
47983;BME280;33751;50.816;-1.214;2023-03-31T11:22:14;98721.02;;;26.19;100.00
47983;BME280;33751;50.816;-1.214;2023-03-31T11:25:06;98719.94;;;25.86;100.00
47983;BME280;33751;50.816;-1.214;2023-03-31T11:27:50;98728.09;;;26.32;100.00
47983;BME280;33751;50.816;-1.214;2023-03-31T11:30:24;98740.85;;;25.81;100.00
47983;BME280;33751;50.816;-1.214;2023-03-31T11:33:05;98745.47;;;26.33;100.00
47983;BME280;33751;50.816;-1.214;2023-03-31T11:35:48;98749.00;;;25.95;100.00
47983;BME280;33751;50.816;-1.214;2023-03-31T11:38:32;98757.62;;;26.24;100.00
47983;BME280;33751;50.816;-1.214;2023-03-31T11:41:04;98764.24;;;25.77;100.00
47983;BME280;33751;50.816;-1.214;2023-03-31T11:43:40;98765.26;;;26.10;100.00
47983;BME280;33751;50.816;-1.214;2023-03-31T11:46:09;98766.60;;;26.04;100.00
47983;BME280;33751;50.816;-1.214;2023-03-31T11:48:42;98772.67;;;25.76;100.00
47983;BME280;33751;50.816;-1.214;2023-03-31T11:51:15;98780.44;;;25.80;100.00
47983;BME280;33751;50.816;-1.214;2023-03-31T11:53:44;98778.56;;;25.79;100.00
47983;BME280;33751;50.816;-1.214;2023-03-31T11:56:13;98790.42;;;26.00;100.00
47983;BME280;33751;50.816;-1.214;2023-03-31T11:58:44;98793.95;;;25.75;100.00
47983;BME280;33751;50.816;-1.214;2023-03-31T12:01:19;98799.81;;;25.98;100.00
47983;BME280;33751;50.816;-1.214;2023-03-31T12:03:53;98814.76;;;25.77;100.00
47983;BME280;33751;50.816;-1.214;2023-03-31T12:06:27;98817.34;;;25.77;100.00
47983;BME280;33751;50.816;-1.214;2023-03-31T12:09:04;98812.69;;;25.62;100.00
47983;BME280;33751;50.816;-1.214;2023-03-31T12:11:38;98825.15;;;25.69;100.00
47983;BME280;33751;50.816;-1.214;2023-03-31T12:14:19;98825.99;;;25.73;100.00
47983;BME280;33751;50.816;-1.214;2023-03-31T12:16:48;98838.07;;;25.91;100.00
47983;BME280;33751;50.816;-1.214;2023-03-31T12:19:20;98843.19;;;25.52;100.00
47983;BME280;33751;50.816;-1.214;2023-03-31T12:21:52;98840.51;;;25.24;100.00
47983;BME280;33751;50.816;-1.214;2023-03-31T12:24:20;98846.16;;;25.88;100.00
47983;BME280;33751;50.816;-1.214;2023-03-31T12:26:55;98857.15;;;25.26;100.00
47983;BME280;33751;50.816;-1.214;2023-03-31T12:29:30;98868.20;;;25.36;100.00
47983;BME280;33751;50.816;-1.214;2023-03-31T12:32:02;98873.80;;;25.04;100.00
47983;BME280;33751;50.816;-1.214;2023-03-31T12:34:31;98881.87;;;25.15;100.00
47983;BME280;33751;50.816;-1.214;2023-03-31T12:37:12;98890.23;;;25.00;100.00
47983;BME280;33751;50.816;-1.214;2023-03-31T12:39:55;98893.97;;;24.97;100.00
47983;BME280;33751;50.816;-1.214;2023-03-31T12:42:41;98899.37;;;25.37;100.00
47983;BME280;33751;50.816;-1.214;2023-03-31T12:45:17;98907.55;;;25.07;100.00
47983;BME280;33751;50.816;-1.214;2023-03-31T12:48:05;98909.91;;;25.14;100.00
47983;BME280;33751;50.816;-1.214;2023-03-31T12:50:48;98917.53;;;25.06;100.00
47983;BME280;33751;50.816;-1.214;2023-03-31T12:53:24;98916.40;;;25.12;100.00
47983;BME280;33751;50.816;-1.214;2023-03-31T12:55:54;98926.32;;;25.13;100.00
47983;BME280;33751;50.816;-1.214;2023-03-31T12:58:40;98926.03;;;25.11;100.00
47983;BME280;33751;50.816;-1.214;2023-03-31T13:01:10;98929.49;;;24.81;100.00